createdAt,value
2023-04-14T00:02:03.010Z,10.2
2023-04-14T00:07:09.256Z,10.2
2023-04-14T00:12:15.612Z,10.1
2023-04-14T00:17:22.041Z,10.1
2023-04-14T00:22:28.283Z,10
2023-04-14T00:27:34.722Z,10
2023-04-14T00:32:42.710Z,10
2023-04-14T00:37:49.067Z,9.9
2023-04-14T00:42:55.410Z,9.8
2023-04-14T00:48:01.780Z,9.8
2023-04-14T00:53:08.125Z,9.8
2023-04-14T00:58:14.469Z,9.7
2023-04-14T01:03:20.945Z,9.7
2023-04-14T01:08:28.826Z,9.6
2023-04-14T01:13:35.198Z,9.6
2023-04-14T01:18:41.535Z,9.5
2023-04-14T01:23:49.492Z,9.5
2023-04-14T01:28:55.909Z,9.5
2023-04-14T01:34:03.811Z,9.4
2023-04-14T01:39:10.108Z,9.4
2023-04-14T01:44:18.143Z,9.3
2023-04-14T01:49:24.580Z,9.3
2023-04-14T01:54:30.875Z,9.3
2023-04-14T01:59:37.258Z,9.2
2023-04-14T02:04:43.612Z,9.2
2023-04-14T02:09:49.952Z,9.1
2023-04-14T02:14:56.341Z,9.1
2023-04-14T02:20:02.680Z,9
2023-04-14T02:25:09.028Z,9
2023-04-14T02:30:15.371Z,8.9
2023-04-14T02:35:21.748Z,8.9
2023-04-14T02:40:28.112Z,8.8
2023-04-14T02:45:34.466Z,8.8
2023-04-14T02:50:40.837Z,8.8
2023-04-14T02:55:48.789Z,8.7
2023-04-14T03:00:55.169Z,8.7
2023-04-14T03:06:01.680Z,8.6
2023-04-14T03:11:07.893Z,8.6
2023-04-14T03:16:14.386Z,8.5
2023-04-14T03:21:20.598Z,8.5
2023-04-14T03:26:27.026Z,8.4
2023-04-14T03:31:34.962Z,8.4
2023-04-14T03:36:41.290Z,8.3
2023-04-14T03:41:47.728Z,8.3
2023-04-14T03:46:54.068Z,8.2
2023-04-14T03:52:00.376Z,8.2
2023-04-14T03:57:06.775Z,8.2
2023-04-14T04:02:13.135Z,8.1
2023-04-14T04:07:21.056Z,8.1
2023-04-14T04:12:27.436Z,8
2023-04-14T04:17:33.887Z,8
2023-04-14T04:22:40.090Z,7.9
2023-04-14T04:27:46.519Z,7.9
2023-04-14T04:32:52.929Z,7.8
2023-04-14T04:37:59.255Z,7.8
2023-04-14T04:43:05.610Z,7.8
2023-04-14T04:48:12.017Z,7.7
2023-04-14T04:53:18.319Z,7.7
2023-04-14T04:58:24.673Z,7.6
2023-04-14T05:03:31.074Z,7.6
2023-04-14T05:08:37.355Z,7.5
2023-04-14T05:13:43.807Z,7.5
2023-04-14T05:18:51.769Z,7.5
2023-04-14T05:23:58.116Z,7.4
2023-04-14T05:29:04.469Z,7.4
2023-04-14T05:34:10.823Z,7.4
2023-04-14T05:39:17.193Z,7.3
2023-04-14T05:44:23.506Z,7.3
2023-04-14T05:49:29.992Z,7.3
2023-04-14T05:59:42.639Z,7.3
2023-04-14T06:04:49.204Z,7.3
2023-04-14T06:09:55.362Z,7.3
2023-04-14T06:15:01.765Z,7.3
2023-04-14T06:20:08.104Z,7.4
2023-04-14T06:30:22.379Z,7.5
2023-04-14T06:35:33.670Z,7.6
2023-04-14T06:40:35.217Z,7.6
2023-04-14T06:45:41.543Z,7.7
2023-04-14T06:50:47.879Z,7.8
2023-04-14T06:55:54.243Z,7.9
2023-04-14T07:01:02.500Z,8
2023-04-14T07:06:08.553Z,8.1
2023-04-14T07:11:14.924Z,8.2
2023-04-14T07:16:21.342Z,8.3
2023-04-14T07:21:27.658Z,8.3
2023-04-14T07:26:34.021Z,8.4
2023-04-14T07:31:40.466Z,8.5
2023-04-14T07:36:46.713Z,8.6
2023-04-14T07:41:54.701Z,8.7
2023-04-14T07:47:01.001Z,8.7
2023-04-14T07:52:07.365Z,8.8
2023-04-14T07:57:13.783Z,8.9
2023-04-14T08:02:20.215Z,8.9
2023-04-14T08:07:26.517Z,9
2023-04-14T08:12:34.465Z,9.1
2023-04-14T08:17:40.885Z,9.2
2023-04-14T08:22:47.192Z,9.2
2023-04-14T08:27:53.559Z,9.3
2023-04-14T08:32:59.928Z,9.4
2023-04-14T08:38:06.277Z,9.5
2023-04-14T08:43:15.366Z,9.6
2023-04-14T08:48:19.003Z,9.7
2023-04-14T08:53:26.966Z,9.8
2023-04-14T08:58:33.353Z,9.9
2023-04-14T09:03:40.014Z,10
2023-04-14T09:08:46.045Z,10
2023-04-14T09:13:52.402Z,10.1
2023-04-14T09:19:02.367Z,10.3
2023-04-14T09:24:05.138Z,10.4
2023-04-14T09:29:11.550Z,10.5
2023-04-14T09:34:17.948Z,10.6
2023-04-14T09:39:24.205Z,10.7
2023-04-14T09:44:30.566Z,10.8
2023-04-14T09:49:36.919Z,10.9
2023-04-14T09:54:43.299Z,11.1
2023-04-14T09:59:49.634Z,11.2
2023-04-14T10:04:57.629Z,11.3
2023-04-14T10:10:03.960Z,11.4
2023-04-14T10:15:10.314Z,11.6
2023-04-14T10:20:16.674Z,11.7
2023-04-14T10:25:23.081Z,11.8
2023-04-14T10:30:29.367Z,12
2023-04-14T10:35:37.397Z,12.1
2023-04-14T10:40:43.750Z,12.2
2023-04-14T10:45:50.148Z,12.4
2023-04-14T10:50:56.492Z,12.5
2023-04-14T10:56:02.903Z,12.6
2023-04-14T11:01:09.268Z,12.8
2023-04-14T11:06:15.562Z,12.9
2023-04-14T11:11:21.925Z,13
2023-04-14T11:16:29.927Z,13.2
2023-04-14T11:21:36.260Z,13.3
2023-04-14T11:26:42.685Z,13.4
2023-04-14T11:31:49.003Z,13.5
2023-04-14T11:36:55.332Z,13.6
2023-04-14T11:42:01.685Z,13.7
2023-04-14T11:47:08.326Z,13.9
2023-04-14T11:52:14.436Z,14
2023-04-14T11:57:20.768Z,14.1
2023-04-14T12:02:27.311Z,14.2
2023-04-14T12:07:35.092Z,14.3
2023-04-14T12:12:43.057Z,14.5
2023-04-14T12:17:49.425Z,14.6
2023-04-14T12:22:55.781Z,14.7
2023-04-14T12:28:03.738Z,14.8
2023-04-14T12:33:10.069Z,15
2023-04-14T12:38:16.482Z,15.1
2023-04-14T12:43:22.813Z,15.2
2023-04-14T12:48:29.142Z,15.3
2023-04-14T12:53:35.516Z,15.4
2023-04-14T12:58:43.518Z,15.5
2023-04-14T13:03:49.934Z,15.6
2023-04-14T13:08:56.194Z,15.7
2023-04-14T13:14:02.583Z,15.8
2023-04-14T13:19:08.904Z,15.9
2023-04-14T13:24:15.246Z,16
2023-04-14T13:29:21.626Z,16
2023-04-14T13:34:27.979Z,16.1
2023-04-14T13:39:35.954Z,16.2
2023-04-14T13:44:42.324Z,16.3
2023-04-14T13:49:48.680Z,16.4
2023-04-14T13:54:55.021Z,16.4
2023-04-14T14:00:01.375Z,16.5
2023-04-14T14:05:07.743Z,16.6
2023-04-14T14:10:14.095Z,16.7
2023-04-14T14:15:20.460Z,16.8
2023-04-14T14:20:26.821Z,16.8
2023-04-14T14:25:33.165Z,16.9
2023-04-14T14:30:39.540Z,17
2023-04-14T14:35:45.888Z,17.1
2023-04-14T14:40:52.259Z,17.2
2023-04-14T14:45:58.613Z,17.2
2023-04-14T14:51:06.578Z,17.3
2023-04-14T14:56:12.884Z,17.4
2023-04-14T15:01:19.354Z,17.5
2023-04-14T15:06:25.601Z,17.5
2023-04-14T15:16:38.386Z,17.7
2023-04-14T15:21:44.740Z,17.8
2023-04-14T15:26:51.097Z,17.9
2023-04-14T15:31:57.528Z,17.9
2023-04-14T15:37:03.823Z,18
2023-04-14T15:42:10.184Z,18
2023-04-14T15:47:16.542Z,18.1
2023-04-14T15:52:22.903Z,18.1
2023-04-14T15:57:29.248Z,18.1
2023-04-14T16:02:37.307Z,18.1
2023-04-14T16:07:43.565Z,18.1
2023-04-14T16:12:50.552Z,18.1
2023-04-14T16:17:56.297Z,18.1
2023-04-14T16:23:02.649Z,18.1
2023-04-14T16:28:09.023Z,18.1
2023-04-14T16:33:15.729Z,18.1
2023-04-14T16:38:21.723Z,18
2023-04-14T16:43:28.150Z,18
2023-04-14T16:48:34.486Z,18
2023-04-14T16:53:40.817Z,17.9
2023-04-14T16:58:47.341Z,17.9
2023-04-14T17:03:53.773Z,17.8
2023-04-14T17:09:01.418Z,17.8
2023-04-14T17:14:09.397Z,17.7
2023-04-14T17:19:15.749Z,17.7
2023-04-14T17:24:22.122Z,17.6
2023-04-14T17:29:28.448Z,17.5
2023-04-14T17:34:34.965Z,17.5
2023-04-14T17:39:41.161Z,17.4
2023-04-14T17:44:47.528Z,17.4
2023-04-14T17:49:53.877Z,17.3
2023-04-14T17:55:00.252Z,17.2
2023-04-14T18:00:06.616Z,17.2
2023-04-14T18:05:12.951Z,17.1
2023-04-14T18:10:19.341Z,17
2023-04-14T18:15:25.684Z,17
2023-04-14T18:20:32.058Z,16.9
2023-04-14T18:30:46.405Z,16.7
2023-04-14T18:35:52.704Z,16.6
2023-04-14T18:40:59.075Z,16.6
2023-04-14T18:46:05.461Z,16.5
2023-04-14T18:51:11.835Z,16.4
2023-04-14T18:56:18.160Z,16.3
2023-04-14T19:01:24.612Z,16.2
2023-04-14T19:06:30.872Z,16.1
2023-04-14T19:11:37.227Z,16
2023-04-14T19:16:45.192Z,15.9
2023-04-14T19:21:51.560Z,15.8
2023-04-14T19:26:57.922Z,15.7
2023-04-14T19:32:04.514Z,15.6
2023-04-14T19:37:12.229Z,15.6
2023-04-14T19:42:18.599Z,15.5
2023-04-14T19:47:25.020Z,15.4
2023-04-14T19:52:31.293Z,15.3
2023-04-14T19:57:37.683Z,15.2
2023-04-14T20:02:44.103Z,15.1
2023-04-14T20:07:50.430Z,15
2023-04-14T20:12:56.747Z,14.9
2023-04-14T20:18:03.158Z,14.8
2023-04-14T20:23:09.500Z,14.7
2023-04-14T20:28:15.823Z,14.6
2023-04-14T20:33:22.178Z,14.5
2023-04-14T20:38:28.585Z,14.4
2023-04-14T20:43:34.932Z,14.3
2023-04-14T20:48:42.874Z,14.2
2023-04-14T20:53:49.228Z,14.1
2023-04-14T20:58:55.565Z,14
2023-04-14T21:04:02.021Z,14
2023-04-14T21:09:08.273Z,13.9
2023-04-14T21:15:44.343Z,13.8
2023-04-14T21:19:22.629Z,13.7
2023-04-14T21:24:28.983Z,13.6
2023-04-14T21:29:35.333Z,13.5
2023-04-14T21:34:41.694Z,13.4
2023-04-14T21:39:48.069Z,13.4
2023-04-14T21:44:54.393Z,13.3
2023-04-14T21:50:00.751Z,13.2
2023-04-14T21:55:07.138Z,13.1
2023-04-14T22:00:15.092Z,13.1
2023-04-14T22:05:21.458Z,13
2023-04-14T22:10:27.811Z,12.9
2023-04-14T22:15:35.786Z,12.8
2023-04-14T22:20:42.159Z,12.8
2023-04-14T22:25:48.534Z,12.7
2023-04-14T22:30:54.901Z,12.6
2023-04-14T22:36:01.213Z,12.5
2023-04-14T22:41:07.596Z,12.5
2023-04-14T22:46:14.053Z,12.4
2023-04-14T22:51:20.276Z,12.3
2023-04-14T22:56:26.667Z,12.3
2023-04-14T23:01:33.043Z,12.2
2023-04-14T23:11:47.333Z,12.1
2023-04-14T23:16:53.706Z,12
2023-04-14T23:22:01.678Z,11.9
2023-04-14T23:27:08.145Z,11.8
2023-04-14T23:32:14.389Z,11.8
2023-04-14T23:37:20.723Z,11.7
2023-04-14T23:42:27.154Z,11.6
2023-04-14T23:47:33.494Z,11.6
2023-04-14T23:52:39.846Z,11.5
